createdAt,value
2022-11-30T00:01:10.404Z,38.88
2022-11-30T00:03:38.028Z,52.03
2022-11-30T00:06:06.725Z,47.60
2022-11-30T00:08:34.468Z,43.35
2022-11-30T00:11:02.164Z,46.35
2022-11-30T00:13:29.772Z,41.58
2022-11-30T00:16:01.807Z,43.40
2022-11-30T00:18:29.305Z,41.53
2022-11-30T00:21:00.074Z,48.08
2022-11-30T00:23:28.055Z,43.85
2022-11-30T00:25:55.446Z,42.17
2022-11-30T00:28:22.884Z,46.15
2022-11-30T00:30:57.890Z,45.85
2022-11-30T00:33:25.601Z,45.40
2022-11-30T00:35:59.896Z,47.97
2022-11-30T00:38:27.331Z,43.28
2022-11-30T00:40:54.806Z,47.60
2022-11-30T00:43:22.198Z,43.10
2022-11-30T00:45:49.954Z,46.20
2022-11-30T00:48:17.485Z,39.00
2022-11-30T00:50:45.222Z,41.08
2022-11-30T00:53:12.709Z,44.60
2022-11-30T00:55:40.218Z,39.03
2022-11-30T00:58:07.750Z,39.47
2022-11-30T01:00:35.593Z,40.97
2022-11-30T01:03:03.264Z,41.75
2022-11-30T01:05:30.952Z,43.92
2022-11-30T01:08:00.756Z,46.13
2022-11-30T01:10:28.297Z,45.47
2022-11-30T01:12:56.108Z,46.95
2022-11-30T01:15:23.746Z,49.35
2022-11-30T01:17:51.265Z,44.25
2022-11-30T01:20:18.964Z,43.95
2022-11-30T01:22:46.467Z,42.58
2022-11-30T01:25:14.224Z,45.60
2022-11-30T01:27:41.747Z,42.22
2022-11-30T01:30:09.493Z,44.55
2022-11-30T01:32:36.995Z,43.67
2022-11-30T01:35:04.507Z,44.67
2022-11-30T01:37:32.293Z,38.22
2022-11-30T01:39:59.855Z,43.85
2022-11-30T01:42:27.288Z,48.35
2022-11-30T01:45:01.574Z,49.10
2022-11-30T01:49:59.097Z,52.60
2022-11-30T01:52:28.768Z,58.30
2022-11-30T01:54:58.558Z,60.90
2022-11-30T01:57:34.884Z,60.08
2022-11-30T02:00:03.680Z,57.47
2022-11-30T02:02:54.176Z,58.72
2022-11-30T02:05:22.394Z,61.05
2022-11-30T02:07:50.007Z,64.78
2022-11-30T02:10:18.724Z,62.97
2022-11-30T02:12:58.128Z,60.55
2022-11-30T02:15:28.828Z,66.93
2022-11-30T02:18:00.398Z,60.05
2022-11-30T02:20:31.018Z,65.13
2022-11-30T02:22:58.504Z,62.00
2022-11-30T02:25:51.576Z,54.35
2022-11-30T02:28:34.012Z,56.67
2022-11-30T02:31:03.020Z,59.88
2022-11-30T02:33:32.595Z,61.53
2022-11-30T02:36:00.473Z,60.58
2022-11-30T02:38:29.084Z,55.88
2022-11-30T02:40:56.617Z,60.22
2022-11-30T02:43:25.954Z,66.78
2022-11-30T02:46:02.351Z,74.68
2022-11-30T02:48:44.195Z,76.22
2022-11-30T02:51:13.794Z,68.10
2022-11-30T02:53:41.665Z,68.30
2022-11-30T02:56:09.238Z,73.57
2022-11-30T02:58:36.894Z,66.93
2022-11-30T03:01:04.323Z,65.03
2022-11-30T03:03:31.775Z,69.63
2022-11-30T03:05:59.478Z,79.32
2022-11-30T03:08:27.024Z,67.85
2022-11-30T03:10:54.576Z,68.80
2022-11-30T03:13:21.975Z,66.53
2022-11-30T03:15:49.661Z,64.40
2022-11-30T03:18:17.214Z,67.85
2022-11-30T03:20:44.847Z,73.50
2022-11-30T03:23:12.818Z,74.97
2022-11-30T03:25:40.288Z,72.00
2022-11-30T03:28:08.008Z,70.97
2022-11-30T03:30:35.690Z,71.20
2022-11-30T03:33:03.177Z,68.40
2022-11-30T03:35:30.625Z,72.40
2022-11-30T03:37:58.017Z,68.68
2022-11-30T03:40:25.514Z,67.90
2022-11-30T03:42:53.004Z,70.82
2022-11-30T03:45:20.387Z,72.18
2022-11-30T03:47:48.148Z,76.18
2022-11-30T03:50:15.718Z,81.20
2022-11-30T03:52:43.516Z,84.47
2022-11-30T03:55:11.429Z,76.35
2022-11-30T03:57:39.084Z,78.25
2022-11-30T04:00:07.275Z,85.05
2022-11-30T04:02:35.597Z,77.22
2022-11-30T04:05:05.385Z,77.15
2022-11-30T04:07:33.213Z,80.85
2022-11-30T04:10:05.267Z,77.07
2022-11-30T04:12:35.958Z,79.13
2022-11-30T04:15:03.730Z,77.07
2022-11-30T04:17:31.477Z,73.00
2022-11-30T04:19:59.095Z,75.82
2022-11-30T04:22:26.908Z,82.05
2022-11-30T04:24:54.415Z,82.50
2022-11-30T04:27:22.037Z,78.05
2022-11-30T04:29:49.648Z,78.97
2022-11-30T04:32:16.983Z,82.68
2022-11-30T04:34:44.451Z,70.22
2022-11-30T04:37:11.934Z,82.47
2022-11-30T04:39:39.415Z,83.50
2022-11-30T04:42:07.134Z,76.57
2022-11-30T04:44:34.908Z,77.35
2022-11-30T04:47:02.406Z,94.00
2022-11-30T04:49:29.934Z,84.28
2022-11-30T04:51:57.333Z,84.20
2022-11-30T04:54:24.782Z,86.05
2022-11-30T04:56:52.315Z,82.18
2022-11-30T04:59:19.727Z,89.85
2022-11-30T05:01:47.287Z,85.45
2022-11-30T05:04:14.904Z,88.78
2022-11-30T05:06:42.625Z,73.03
2022-11-30T05:09:10.177Z,78.68
2022-11-30T05:11:37.624Z,82.65
2022-11-30T05:14:05.607Z,80.20
2022-11-30T05:16:33.197Z,69.10
2022-11-30T05:19:00.922Z,82.10
2022-11-30T05:21:28.394Z,73.97
2022-11-30T05:23:55.773Z,73.35
2022-11-30T05:26:23.186Z,73.10
2022-11-30T05:28:50.508Z,66.82
2022-11-30T05:31:18.182Z,73.55
2022-11-30T05:33:50.664Z,68.25
2022-11-30T05:36:18.067Z,75.78
2022-11-30T05:38:45.654Z,72.25
2022-11-30T05:41:13.488Z,74.95
2022-11-30T05:43:41.217Z,71.97
2022-11-30T05:46:10.163Z,68.53
2022-11-30T05:48:38.307Z,80.55
2022-11-30T05:51:09.624Z,76.43
2022-11-30T05:53:37.174Z,77.30
2022-11-30T05:56:08.525Z,75.68
2022-11-30T05:58:36.198Z,74.85
2022-11-30T06:01:03.884Z,83.32
2022-11-30T06:03:32.594Z,75.18
2022-11-30T06:06:00.135Z,73.18
2022-11-30T06:08:28.075Z,67.95
2022-11-30T06:10:55.465Z,64.60
2022-11-30T06:13:28.639Z,72.75
2022-11-30T06:15:59.466Z,66.70
2022-11-30T06:18:27.321Z,69.15
2022-11-30T06:20:54.735Z,68.07
2022-11-30T06:23:22.405Z,65.72
2022-11-30T06:25:49.947Z,62.92
2022-11-30T06:28:17.302Z,70.15
2022-11-30T06:30:44.562Z,71.75
2022-11-30T06:33:12.052Z,67.18
2022-11-30T06:35:45.303Z,72.28
2022-11-30T06:38:12.766Z,67.32
2022-11-30T06:40:40.064Z,69.55
2022-11-30T06:43:07.632Z,69.82
2022-11-30T06:45:35.133Z,66.65
2022-11-30T06:48:02.663Z,69.22
2022-11-30T06:50:30.180Z,71.75
2022-11-30T06:52:58.155Z,66.40
2022-11-30T06:55:25.706Z,69.05
2022-11-30T06:57:53.073Z,66.53
2022-11-30T07:00:20.852Z,66.05
2022-11-30T07:02:48.536Z,65.53
2022-11-30T07:05:15.932Z,66.25
2022-11-30T07:07:43.558Z,59.25
2022-11-30T07:10:13.756Z,64.10
2022-11-30T07:12:45.462Z,62.45
2022-11-30T07:15:12.835Z,67.70
2022-11-30T07:17:40.329Z,68.05
2022-11-30T07:20:08.182Z,70.55
2022-11-30T07:22:35.671Z,83.88
2022-11-30T07:25:21.833Z,74.35
2022-11-30T07:27:49.364Z,70.38
2022-11-30T07:30:17.022Z,70.43
2022-11-30T07:32:44.312Z,77.07
2022-11-30T07:35:11.701Z,74.28
2022-11-30T07:37:39.435Z,74.88
2022-11-30T07:40:07.256Z,74.95
2022-11-30T07:42:34.643Z,72.57
2022-11-30T07:45:02.131Z,63.70
2022-11-30T07:47:29.652Z,72.15
2022-11-30T07:49:57.400Z,64.68
2022-11-30T07:52:25.010Z,64.85
2022-11-30T07:54:52.469Z,57.45
2022-11-30T07:57:20.002Z,67.80
2022-11-30T07:59:47.718Z,67.15
2022-11-30T08:02:15.602Z,61.03
2022-11-30T08:04:43.330Z,62.55
2022-11-30T08:07:11.151Z,58.67
2022-11-30T08:09:38.807Z,59.75
2022-11-30T08:12:06.393Z,64.75
2022-11-30T08:14:50.474Z,68.20
2022-11-30T08:17:21.323Z,67.78
2022-11-30T08:19:48.827Z,60.47
2022-11-30T08:22:16.192Z,71.50
2022-11-30T08:24:43.634Z,58.83
2022-11-30T08:27:11.005Z,64.82
2022-11-30T08:29:38.641Z,67.10
2022-11-30T08:32:06.127Z,60.63
2022-11-30T08:34:33.870Z,61.63
2022-11-30T08:37:01.386Z,66.10
2022-11-30T08:39:31.777Z,69.30
2022-11-30T08:41:59.152Z,62.55
2022-11-30T08:44:26.865Z,66.60
2022-11-30T08:46:54.701Z,69.63
2022-11-30T08:49:24.841Z,65.57
2022-11-30T08:54:47.099Z,67.15
2022-11-30T08:57:16.389Z,62.33
2022-11-30T08:59:43.955Z,67.60
2022-11-30T09:02:17.720Z,62.35
2022-11-30T09:04:45.823Z,62.17
2022-11-30T09:07:13.627Z,67.65
2022-11-30T09:09:41.346Z,67.53
2022-11-30T09:12:08.968Z,62.67
2022-11-30T09:14:36.782Z,64.68
2022-11-30T09:17:04.513Z,69.93
2022-11-30T09:19:32.056Z,63.63
2022-11-30T09:21:59.480Z,63.88
2022-11-30T09:24:27.143Z,59.72
2022-11-30T09:26:58.109Z,61.10
2022-11-30T09:29:25.853Z,57.60
2022-11-30T09:31:53.426Z,55.03
2022-11-30T09:34:21.013Z,60.05
2022-11-30T09:36:48.661Z,60.38
2022-11-30T09:39:16.183Z,57.42
2022-11-30T09:42:01.985Z,59.60
2022-11-30T09:44:29.458Z,63.50
2022-11-30T09:47:06.079Z,61.13
2022-11-30T09:49:51.836Z,58.42
2022-11-30T09:52:35.434Z,59.10
2022-11-30T09:55:07.106Z,61.97
2022-11-30T09:57:38.036Z,57.22
2022-11-30T10:00:07.719Z,54.15
2022-11-30T10:02:38.844Z,51.75
2022-11-30T10:05:16.846Z,55.60
2022-11-30T10:07:56.422Z,55.10
2022-11-30T10:10:33.037Z,51.60
2022-11-30T10:13:16.134Z,56.95
2022-11-30T10:15:58.822Z,58.17
2022-11-30T10:18:26.404Z,59.70
2022-11-30T10:21:04.061Z,54.92
2022-11-30T10:23:31.852Z,57.92
2022-11-30T10:26:02.243Z,56.15
2022-11-30T10:28:47.391Z,50.67
2022-11-30T10:31:16.441Z,55.88
2022-11-30T10:33:48.012Z,57.63
2022-11-30T10:36:47.724Z,50.75
2022-11-30T10:39:18.613Z,49.90
2022-11-30T10:41:52.647Z,52.72
2022-11-30T10:44:28.682Z,59.90
2022-11-30T10:46:59.190Z,50.53
2022-11-30T10:49:29.341Z,48.10
2022-11-30T10:51:59.913Z,42.67
2022-11-30T10:54:27.523Z,46.83
2022-11-30T10:56:55.142Z,48.10
2022-11-30T10:59:28.117Z,45.10
2022-11-30T11:01:55.585Z,47.65
2022-11-30T11:04:24.719Z,47.53
2022-11-30T11:06:53.892Z,42.97
2022-11-30T11:09:27.713Z,47.55
2022-11-30T11:11:56.586Z,46.03
2022-11-30T11:14:25.236Z,52.75
2022-11-30T11:17:00.426Z,46.28
2022-11-30T11:19:34.108Z,47.08
2022-11-30T11:22:16.387Z,49.47
2022-11-30T11:24:44.633Z,51.65
2022-11-30T11:27:23.472Z,46.20
2022-11-30T11:30:11.045Z,46.15
2022-11-30T11:32:38.683Z,45.45
2022-11-30T11:35:26.173Z,52.55
2022-11-30T11:37:53.775Z,46.30
2022-11-30T11:40:22.653Z,52.67
2022-11-30T11:42:52.044Z,49.83
2022-11-30T11:45:21.738Z,47.50
2022-11-30T11:47:58.044Z,48.38
2022-11-30T11:50:58.168Z,49.08
2022-11-30T11:53:24.316Z,51.50
2022-11-30T11:55:53.744Z,51.78
2022-11-30T11:58:25.736Z,53.08
2022-11-30T12:01:05.757Z,46.05
2022-11-30T12:03:45.551Z,54.63
2022-11-30T12:06:16.040Z,54.22
2022-11-30T12:08:58.430Z,59.25
2022-11-30T12:11:33.463Z,53.25
2022-11-30T12:14:09.697Z,57.35
2022-11-30T12:16:46.340Z,54.28
2022-11-30T12:19:16.344Z,54.38
2022-11-30T12:22:09.272Z,50.28
2022-11-30T12:24:39.832Z,49.05
2022-11-30T12:27:16.374Z,49.67
2022-11-30T12:30:02.490Z,48.17
2022-11-30T12:32:35.986Z,45.92
2022-11-30T12:35:12.844Z,45.40
2022-11-30T12:37:49.402Z,48.03
2022-11-30T12:40:43.223Z,47.33
2022-11-30T12:43:32.974Z,40.20
2022-11-30T12:46:19.296Z,41.28
2022-11-30T12:49:05.210Z,48.85
2022-11-30T12:51:42.175Z,39.78
2022-11-30T12:54:15.606Z,45.75
2022-11-30T12:56:52.432Z,49.55
2022-11-30T12:59:19.826Z,43.72
2022-11-30T13:02:01.091Z,42.95
2022-11-30T13:04:31.303Z,45.97
2022-11-30T13:07:03.774Z,41.13
2022-11-30T13:09:35.996Z,41.50
2022-11-30T13:12:10.952Z,42.05
2022-11-30T13:14:38.934Z,44.08
2022-11-30T13:17:07.953Z,41.53
2022-11-30T13:19:48.339Z,42.78
2022-11-30T13:22:24.187Z,43.90
2022-11-30T13:24:59.005Z,40.92
2022-11-30T13:27:38.414Z,46.03
2022-11-30T13:30:36.098Z,41.08
2022-11-30T13:33:30.122Z,43.63
2022-11-30T13:35:57.802Z,45.67
2022-11-30T13:38:40.512Z,46.63
2022-11-30T13:41:09.405Z,50.72
2022-11-30T13:43:46.461Z,42.97
2022-11-30T13:46:14.154Z,36.72
2022-11-30T13:48:43.134Z,43.33
2022-11-30T13:51:10.856Z,52.15
2022-11-30T13:53:39.192Z,41.05
2022-11-30T13:56:18.843Z,39.40
2022-11-30T13:59:05.014Z,38.58
2022-11-30T14:01:32.614Z,38.42
2022-11-30T14:04:15.362Z,41.42
2022-11-30T14:06:42.806Z,40.60
2022-11-30T14:09:29.235Z,42.67
2022-11-30T14:11:56.752Z,44.40
2022-11-30T14:14:45.751Z,43.25
2022-11-30T14:17:25.175Z,41.45
2022-11-30T14:19:53.866Z,45.08
2022-11-30T14:22:22.290Z,44.67
2022-11-30T14:24:50.232Z,42.15
2022-11-30T14:27:19.831Z,40.33
2022-11-30T14:29:53.506Z,45.92
2022-11-30T14:32:41.055Z,38.55
2022-11-30T14:35:10.862Z,43.83
2022-11-30T14:37:43.412Z,40.35
2022-11-30T14:40:19.144Z,37.90
2022-11-30T14:43:09.031Z,36.20
2022-11-30T14:45:37.372Z,40.42
2022-11-30T14:48:09.282Z,35.10
2022-11-30T14:50:37.302Z,39.75
2022-11-30T14:53:07.911Z,36.95
2022-11-30T14:55:46.465Z,37.38
2022-11-30T14:58:25.892Z,35.33
2022-11-30T15:00:53.722Z,33.10
2022-11-30T15:03:37.296Z,42.65
2022-11-30T15:06:08.041Z,249.90
2022-11-30T15:08:36.971Z,44.47
2022-11-30T15:11:06.521Z,35.75
2022-11-30T15:13:34.062Z,36.05
2022-11-30T15:16:01.747Z,35.03
2022-11-30T15:18:29.304Z,31.90
2022-11-30T15:21:17.804Z,37.42
2022-11-30T15:23:50.829Z,34.58
2022-11-30T15:26:19.106Z,30.50
2022-11-30T15:28:50.554Z,33.60
2022-11-30T15:31:18.488Z,32.05
2022-11-30T15:33:47.523Z,35.95
2022-11-30T15:36:32.600Z,30.33
2022-11-30T15:39:03.501Z,33.85
2022-11-30T15:41:31.379Z,32.70
2022-11-30T15:43:58.941Z,32.83
2022-11-30T15:46:49.381Z,30.05
2022-11-30T15:49:18.903Z,35.03
2022-11-30T15:51:47.471Z,31.20
2022-11-30T15:54:15.873Z,31.40
2022-11-30T15:56:55.521Z,28.75
2022-11-30T15:59:24.726Z,31.55
2022-11-30T16:02:02.842Z,33.75
2022-11-30T16:04:50.511Z,30.60
2022-11-30T16:07:18.776Z,32.58
2022-11-30T16:09:46.779Z,35.42
2022-11-30T16:12:28.319Z,33.60
2022-11-30T16:14:55.956Z,35.20
2022-11-30T16:17:23.541Z,33.33
2022-11-30T16:19:51.342Z,32.72
2022-11-30T16:22:19.634Z,33.42
2022-11-30T16:24:48.403Z,31.73
2022-11-30T16:27:17.640Z,31.10
2022-11-30T16:29:51.889Z,37.53
2022-11-30T16:32:20.313Z,31.45
2022-11-30T16:34:48.873Z,33.60
2022-11-30T16:37:16.694Z,34.85
2022-11-30T16:39:44.234Z,29.38
2022-11-30T16:42:14.881Z,31.83
2022-11-30T16:44:42.271Z,39.50
2022-11-30T16:47:09.713Z,33.38
2022-11-30T16:49:37.271Z,36.95
2022-11-30T16:52:04.830Z,37.25
2022-11-30T16:54:32.557Z,34.65
2022-11-30T16:57:00.124Z,35.97
2022-11-30T16:59:27.840Z,37.20
2022-11-30T17:01:55.480Z,35.40
2022-11-30T17:04:24.122Z,34.38
2022-11-30T17:06:55.857Z,40.15
2022-11-30T17:09:27.590Z,40.20
2022-11-30T17:11:55.042Z,37.70
2022-11-30T17:14:22.757Z,36.30
2022-11-30T17:16:51.144Z,36.08
2022-11-30T17:19:18.802Z,37.58
2022-11-30T17:21:47.070Z,36.75
2022-11-30T17:24:14.799Z,36.35
2022-11-30T17:26:42.444Z,38.92
2022-11-30T17:29:09.831Z,44.17
2022-11-30T17:31:37.471Z,37.25
2022-11-30T17:34:04.942Z,36.60
2022-11-30T17:36:32.510Z,39.63
2022-11-30T17:39:00.255Z,42.45
2022-11-30T17:41:28.044Z,46.40
2022-11-30T17:43:55.558Z,40.80
2022-11-30T17:46:23.227Z,43.83
2022-11-30T17:48:51.022Z,45.45
2022-11-30T17:51:18.802Z,45.05
2022-11-30T17:53:46.309Z,43.75
2022-11-30T17:56:18.475Z,45.00
2022-11-30T17:58:47.286Z,41.97
2022-11-30T18:01:17.915Z,46.50
2022-11-30T18:03:46.201Z,46.53
2022-11-30T18:06:14.572Z,47.45
2022-11-30T18:08:42.158Z,51.05
2022-11-30T18:11:14.265Z,43.40
2022-11-30T18:13:41.984Z,45.95
2022-11-30T18:16:13.707Z,47.35
2022-11-30T18:18:47.077Z,45.20
2022-11-30T18:23:43.084Z,48.10
2022-11-30T18:26:15.070Z,46.92
2022-11-30T18:28:43.230Z,42.53
2022-11-30T18:31:10.873Z,43.63
2022-11-30T18:33:39.070Z,49.45
2022-11-30T18:36:07.997Z,43.95
2022-11-30T18:38:38.355Z,47.00
2022-11-30T18:41:06.834Z,47.08
2022-11-30T18:43:35.088Z,43.40
2022-11-30T18:46:06.538Z,46.40
2022-11-30T18:48:34.150Z,43.85
2022-11-30T18:51:09.118Z,48.83
2022-11-30T18:53:36.523Z,39.72
2022-11-30T18:56:17.860Z,45.03
2022-11-30T18:58:45.770Z,43.03
2022-11-30T19:01:14.779Z,46.63
2022-11-30T19:03:42.353Z,46.22
2022-11-30T19:06:10.880Z,45.42
2022-11-30T19:08:40.375Z,51.03
2022-11-30T19:11:08.812Z,54.70
2022-11-30T19:13:36.390Z,47.83
2022-11-30T19:16:05.061Z,46.70
2022-11-30T19:18:32.683Z,46.30
2022-11-30T19:21:00.286Z,46.63
2022-11-30T19:23:28.503Z,48.03
2022-11-30T19:26:00.978Z,40.30
2022-11-30T19:28:30.672Z,47.67
2022-11-30T19:30:59.034Z,40.90
2022-11-30T19:33:27.025Z,49.42
2022-11-30T19:35:54.678Z,44.95
2022-11-30T19:38:22.014Z,46.22
2022-11-30T19:40:49.384Z,44.05
2022-11-30T19:43:16.789Z,45.55
2022-11-30T19:45:47.037Z,42.30
2022-11-30T19:48:14.645Z,39.72
2022-11-30T19:50:42.075Z,49.40
2022-11-30T19:53:09.550Z,43.05
2022-11-30T19:55:39.960Z,42.78
2022-11-30T19:58:07.770Z,46.72
2022-11-30T20:00:35.500Z,48.47
2022-11-30T20:03:09.897Z,44.72
2022-11-30T20:05:37.871Z,48.78
2022-11-30T20:08:06.124Z,43.05
2022-11-30T20:10:33.886Z,41.30
2022-11-30T20:13:01.429Z,41.03
2022-11-30T20:15:28.943Z,39.47
2022-11-30T20:17:56.660Z,44.80
2022-11-30T20:20:24.490Z,34.92
2022-11-30T20:22:52.538Z,40.25
2022-11-30T20:25:21.360Z,40.35
2022-11-30T20:27:50.384Z,43.13
2022-11-30T20:30:18.076Z,39.40
2022-11-30T20:32:45.633Z,39.00
2022-11-30T20:35:13.191Z,44.28
2022-11-30T20:37:40.826Z,42.15
2022-11-30T20:40:09.080Z,39.85
2022-11-30T20:42:36.780Z,38.20
2022-11-30T20:45:04.514Z,41.65
2022-11-30T20:47:35.421Z,41.55
2022-11-30T20:50:03.630Z,45.03
2022-11-30T20:52:31.200Z,45.30
2022-11-30T20:54:58.740Z,37.72
2022-11-30T20:57:26.220Z,54.58
2022-11-30T20:59:54.230Z,69.78
2022-11-30T21:02:22.066Z,43.97
2022-11-30T21:04:49.904Z,51.65
2022-11-30T21:07:17.488Z,52.78
2022-11-30T21:09:45.415Z,43.92
2022-11-30T21:12:13.300Z,52.67
2022-11-30T21:14:40.788Z,40.92
2022-11-30T21:17:08.883Z,42.08
2022-11-30T21:19:36.332Z,52.17
2022-11-30T21:22:05.746Z,39.75
2022-11-30T21:24:35.270Z,57.60
2022-11-30T21:27:02.931Z,43.63
2022-11-30T21:29:30.733Z,41.97
2022-11-30T21:31:58.550Z,42.33
2022-11-30T21:34:26.590Z,45.35
2022-11-30T21:36:54.060Z,39.95
2022-11-30T21:39:21.530Z,47.97
2022-11-30T21:41:49.368Z,41.60
2022-11-30T21:44:17.411Z,45.10
2022-11-30T21:46:48.599Z,44.50
2022-11-30T21:49:16.851Z,43.75
2022-11-30T21:51:45.001Z,48.10
2022-11-30T21:54:13.473Z,40.75
2022-11-30T21:56:43.035Z,44.47
2022-11-30T21:59:12.226Z,49.20
2022-11-30T22:01:41.250Z,43.70
2022-11-30T22:04:09.523Z,54.45
2022-11-30T22:06:37.986Z,45.33
2022-11-30T22:09:09.701Z,46.85
2022-11-30T22:11:39.243Z,55.95
2022-11-30T22:14:07.130Z,47.65
2022-11-30T22:16:36.535Z,51.88
2022-11-30T22:19:04.904Z,46.67
2022-11-30T22:21:32.606Z,51.35
2022-11-30T22:24:01.472Z,52.58
2022-11-30T22:26:30.005Z,53.13
2022-11-30T22:28:58.710Z,55.47
2022-11-30T22:31:28.203Z,55.72
2022-11-30T22:33:56.391Z,50.83
2022-11-30T22:36:27.841Z,54.25
2022-11-30T22:38:56.430Z,62.42
2022-11-30T22:41:24.210Z,53.53
2022-11-30T22:43:52.421Z,54.28
2022-11-30T22:46:21.127Z,57.03
2022-11-30T22:48:48.874Z,54.70
2022-11-30T22:51:17.564Z,53.67
2022-11-30T22:53:45.291Z,54.30
2022-11-30T22:56:14.098Z,59.47
2022-11-30T22:58:42.512Z,58.78
2022-11-30T23:01:14.841Z,54.88
2022-11-30T23:03:42.874Z,50.45
2022-11-30T23:06:10.804Z,57.63
2022-11-30T23:08:38.290Z,49.67
2022-11-30T23:11:07.265Z,53.20
2022-11-30T23:13:35.644Z,55.83
2022-11-30T23:16:04.991Z,55.35
2022-11-30T23:18:37.223Z,55.17
2022-11-30T23:21:06.564Z,52.53
2022-11-30T23:23:34.030Z,49.72
2022-11-30T23:26:16.721Z,53.40
2022-11-30T23:28:45.081Z,51.80
2022-11-30T23:31:33.621Z,56.63
2022-11-30T23:34:02.363Z,49.20
2022-11-30T23:36:29.948Z,45.65
2022-11-30T23:39:02.380Z,52.55
2022-11-30T23:41:30.373Z,43.90
2022-11-30T23:43:57.721Z,46.40
2022-11-30T23:46:25.825Z,47.35
2022-11-30T23:48:53.481Z,50.28
2022-11-30T23:51:20.878Z,41.95
2022-11-30T23:53:49.022Z,46.63
2022-11-30T23:56:17.860Z,46.85
2022-11-30T23:58:45.712Z,47.83
